Disclaimer

Please do not use the information listed here in-flight or in-navigation, as they are not provided to us by the airports but are provided by volunteers, so they might be outdated.

Search


Regions


Airport information page

Radio informations:
FLIGHT SVC - 130.8 MHz
REMOTE - 118.4 MHz

Airport informations:
Latitude: 35° 30' 46.00" N
Longitude: 134° 47' 13.00" E
Elevation: 584 feet - 178 meters
Operating hours: Remarks
Operating agency: Civil government, landing fees and diplomatic clearance may be required
Timezone: UTC+9
Fuel: N/A

Runway information:
01/19 - 3937 x 98 feet< - >1200 x 30 meters

Recent METARs:
RJBT 180600Z 18003KT 140V210 9999 FEW030 BKN120 16/14 Q1015
RJBT 180600Z 18003KT 140V210 9999 FEW030 BKN120 16/14 Q1015
RJBT 180700Z 21005KT 9999 FEW030 BKN120 15/15 Q1015

Airport on the map: